createdAt,value
2019-03-03T00:00:47.440Z,50.52
2019-03-03T00:03:17.272Z,51.77
2019-03-03T00:05:45.765Z,49.93
2019-03-03T00:08:14.328Z,55.08
2019-03-03T00:10:42.871Z,52.05
2019-03-03T00:13:11.442Z,54.77
2019-03-03T00:15:40.008Z,60.70
2019-03-03T00:18:08.479Z,58.78
2019-03-03T00:20:36.952Z,57.35
2019-03-03T00:23:05.411Z,58.98
2019-03-03T00:25:34.035Z,59.10
2019-03-03T00:28:02.640Z,56.20
2019-03-03T00:31:31.880Z,60.60
2019-03-03T00:34:00.432Z,65.25
2019-03-03T00:36:30.565Z,61.48
2019-03-03T00:42:00.330Z,65.22
2019-03-03T00:44:33.212Z,61.77
2019-03-03T00:47:12.383Z,62.60
2019-03-03T00:50:01.683Z,69.92
2019-03-03T00:52:31.815Z,65.55
2019-03-03T00:55:18.268Z,61.05
2019-03-03T00:57:51.331Z,64.00
2019-03-03T01:00:39.623Z,67.70
2019-03-03T01:03:12.735Z,64.20
2019-03-03T01:05:42.939Z,68.60
2019-03-03T01:08:15.895Z,72.97
2019-03-03T01:10:49.006Z,66.50
2019-03-03T01:13:19.390Z,65.08
2019-03-03T01:16:06.022Z,64.00
2019-03-03T01:18:41.981Z,66.72
2019-03-03T01:21:12.101Z,68.97
2019-03-03T01:23:58.115Z,69.85
2019-03-03T01:26:26.656Z,64.10
2019-03-03T01:28:55.170Z,55.40
2019-03-03T01:31:23.629Z,59.20
2019-03-03T01:33:52.189Z,56.95
2019-03-03T01:36:20.636Z,68.95
2019-03-03T01:38:49.150Z,61.88
2019-03-03T01:41:17.646Z,58.15
2019-03-03T01:43:46.118Z,64.90
2019-03-03T01:46:14.671Z,58.68
2019-03-03T01:48:43.157Z,63.17
2019-03-03T01:51:11.655Z,62.58
2019-03-03T01:53:40.313Z,60.83
2019-03-03T01:56:08.790Z,58.05
2019-03-03T01:58:37.280Z,53.10
2019-03-03T02:01:05.838Z,58.52
2019-03-03T02:03:35.568Z,51.15
2019-03-03T02:06:06.054Z,52.40
2019-03-03T02:08:34.681Z,51.10
2019-03-03T02:11:03.320Z,52.17
2019-03-03T02:13:31.808Z,50.80
2019-03-03T02:16:00.426Z,53.10
2019-03-03T02:18:28.921Z,48.85
2019-03-03T02:20:57.415Z,50.43
2019-03-03T02:23:25.917Z,44.45
2019-03-03T02:25:54.458Z,43.42
2019-03-03T02:28:22.933Z,44.77
2019-03-03T02:30:51.512Z,45.88
2019-03-03T02:33:20.062Z,45.40
2019-03-03T02:35:48.639Z,37.35
2019-03-03T02:38:17.137Z,40.33
2019-03-03T02:40:45.650Z,38.85
2019-03-03T02:43:14.211Z,42.15
2019-03-03T02:45:42.771Z,39.67
2019-03-03T02:48:11.240Z,44.60
2019-03-03T02:50:39.719Z,44.10
2019-03-03T02:53:08.200Z,40.03
2019-03-03T02:55:36.699Z,46.23
2019-03-03T02:58:05.317Z,39.13
2019-03-03T03:00:35.604Z,38.53
2019-03-03T03:03:16.258Z,41.40
2019-03-03T03:05:58.268Z,38.83
2019-03-03T03:08:28.555Z,34.90
2019-03-03T03:11:02.143Z,35.28
2019-03-03T03:13:48.471Z,34.80
2019-03-03T03:16:18.613Z,34.25
2019-03-03T03:18:58.012Z,32.90
2019-03-03T03:21:33.954Z,33.48
2019-03-03T03:24:20.834Z,35.40
2019-03-03T03:27:07.286Z,34.65
2019-03-03T03:29:49.592Z,32.90
2019-03-03T03:32:19.760Z,31.57
2019-03-03T03:34:58.688Z,31.02
2019-03-03T03:37:40.787Z,28.17
2019-03-03T03:40:12.331Z,27.32
2019-03-03T03:42:58.681Z,28.52
2019-03-03T03:45:44.986Z,32.65
2019-03-03T03:48:20.817Z,30.48
2019-03-03T03:51:00.142Z,30.80
2019-03-03T03:53:30.298Z,29.90
2019-03-03T03:56:18.606Z,29.30
2019-03-03T03:59:00.925Z,30.75
2019-03-03T04:01:43.278Z,29.10
2019-03-03T04:04:16.398Z,29.70
2019-03-03T04:06:52.544Z,22.90
2019-03-03T04:09:22.670Z,30.17
2019-03-03T04:11:52.773Z,31.80
2019-03-03T04:14:22.911Z,25.00
2019-03-03T04:16:58.981Z,26.93
2019-03-03T04:19:29.140Z,25.62
2019-03-03T04:21:59.251Z,25.32
2019-03-03T04:24:35.032Z,25.02
2019-03-03T04:27:07.754Z,25.88
2019-03-03T04:29:40.623Z,26.07
2019-03-03T04:32:16.169Z,28.50
2019-03-03T04:35:02.965Z,26.73
2019-03-03T04:37:51.225Z,23.52
2019-03-03T04:40:21.503Z,22.55
2019-03-03T04:42:51.639Z,24.43
2019-03-03T04:45:24.869Z,23.47
2019-03-03T04:48:00.670Z,24.67
2019-03-03T04:50:42.613Z,24.15
2019-03-03T04:53:18.645Z,23.35
2019-03-03T04:56:03.843Z,29.20
2019-03-03T04:58:43.072Z,27.15
2019-03-03T05:01:28.241Z,23.60
2019-03-03T05:06:42.905Z,22.22
2019-03-03T05:09:13.046Z,21.68
2019-03-03T05:15:01.799Z,26.85
2019-03-03T05:17:41.003Z,22.00
2019-03-03T05:20:17.176Z,26.82
2019-03-03T05:22:45.716Z,24.15
2019-03-03T05:25:14.382Z,26.75
2019-03-03T05:27:42.861Z,24.30
2019-03-03T05:30:13.696Z,22.67
2019-03-03T05:32:42.138Z,28.02
2019-03-03T05:35:11.122Z,30.30
2019-03-03T05:37:40.147Z,30.62
2019-03-03T05:40:08.976Z,26.60
2019-03-03T05:42:37.517Z,25.37
2019-03-03T05:45:07.068Z,34.73
2019-03-03T05:47:35.545Z,28.45
2019-03-03T05:50:05.124Z,31.20
2019-03-03T05:52:33.632Z,26.73
2019-03-03T05:55:02.162Z,27.73
2019-03-03T05:57:30.620Z,35.88
2019-03-03T05:59:59.125Z,37.05
2019-03-03T06:02:27.622Z,30.90
2019-03-03T06:04:56.110Z,37.20
2019-03-03T06:07:24.587Z,42.27
2019-03-03T06:09:53.082Z,35.88
2019-03-03T06:12:21.561Z,33.42
2019-03-03T06:14:50.077Z,33.75
2019-03-03T06:17:18.561Z,33.25
2019-03-03T06:19:47.023Z,39.38
2019-03-03T06:22:15.495Z,39.23
2019-03-03T06:24:44.038Z,41.40
2019-03-03T06:27:12.518Z,49.67
2019-03-03T06:29:43.905Z,41.18
2019-03-03T06:32:12.394Z,42.53
2019-03-03T06:34:40.868Z,51.28
2019-03-03T06:37:09.357Z,52.98
2019-03-03T06:39:37.819Z,47.67
2019-03-03T06:42:06.301Z,44.58
2019-03-03T06:44:34.775Z,39.90
2019-03-03T06:47:03.313Z,41.30
2019-03-03T06:49:31.764Z,41.28
2019-03-03T06:52:00.279Z,39.05
2019-03-03T06:54:28.753Z,37.05
2019-03-03T06:56:57.227Z,39.55
2019-03-03T06:59:25.812Z,36.95
2019-03-03T07:01:54.290Z,35.55
2019-03-03T07:04:22.817Z,36.28
2019-03-03T07:06:51.263Z,39.40
2019-03-03T07:09:19.739Z,36.20
2019-03-03T07:11:48.211Z,36.53
2019-03-03T07:14:16.684Z,39.80
2019-03-03T07:16:45.198Z,33.08
2019-03-03T07:19:13.656Z,32.20
2019-03-03T07:21:42.254Z,34.18
2019-03-03T07:24:10.747Z,33.65
2019-03-03T07:26:40.875Z,36.35
2019-03-03T07:29:09.381Z,32.75
2019-03-03T07:31:37.835Z,32.48
2019-03-03T07:34:06.707Z,35.70
2019-03-03T07:36:35.173Z,31.77
2019-03-03T07:39:05.182Z,29.95
2019-03-03T07:41:33.643Z,32.67
2019-03-03T07:44:02.129Z,29.30
2019-03-03T07:46:30.601Z,30.40
2019-03-03T07:48:59.158Z,33.75
2019-03-03T07:51:27.626Z,33.20
2019-03-03T07:53:56.086Z,31.50
2019-03-03T07:56:24.571Z,27.80
2019-03-03T07:58:53.053Z,31.02
2019-03-03T08:01:21.541Z,31.87
2019-03-03T08:03:50.008Z,30.32
2019-03-03T08:06:18.499Z,31.35
2019-03-03T08:08:47.437Z,30.23
2019-03-03T08:11:15.992Z,30.00
2019-03-03T08:13:44.458Z,31.68
2019-03-03T08:16:12.938Z,31.77
2019-03-03T08:18:41.396Z,32.93
2019-03-03T08:21:09.866Z,33.15
2019-03-03T08:23:38.335Z,29.85
2019-03-03T08:26:06.829Z,30.77
2019-03-03T08:28:35.373Z,30.17
2019-03-03T08:31:03.879Z,31.17
2019-03-03T08:33:32.425Z,27.37
2019-03-03T08:36:00.915Z,29.27
2019-03-03T08:38:29.373Z,28.52
2019-03-03T08:40:57.943Z,26.82
2019-03-03T08:43:28.072Z,28.30
2019-03-03T08:45:58.214Z,27.52
2019-03-03T08:48:28.387Z,25.02
2019-03-03T08:50:58.506Z,25.85
2019-03-03T08:53:31.360Z,26.80
2019-03-03T08:56:04.040Z,27.32
2019-03-03T08:58:34.289Z,28.02
2019-03-03T09:01:04.377Z,26.97
2019-03-03T09:03:37.160Z,27.30
2019-03-03T09:06:07.299Z,24.77
2019-03-03T09:08:49.138Z,23.38
2019-03-03T09:11:25.248Z,23.92
2019-03-03T09:13:58.118Z,25.23
2019-03-03T09:16:31.257Z,24.23
2019-03-03T09:22:12.433Z,24.98
2019-03-03T09:24:48.433Z,22.35
2019-03-03T09:27:24.815Z,24.63
2019-03-03T09:30:09.906Z,21.48
2019-03-03T09:35:12.583Z,21.70
2019-03-03T09:37:48.898Z,22.48
2019-03-03T09:40:19.120Z,21.10
2019-03-03T09:42:49.288Z,19.90
2019-03-03T09:45:19.551Z,20.97
2019-03-03T09:47:58.620Z,18.98
2019-03-03T09:51:00.426Z,20.02
2019-03-03T09:53:35.984Z,20.57
2019-03-03T09:56:21.277Z,18.32
2019-03-03T09:58:51.383Z,20.08
2019-03-03T10:04:36.537Z,17.42
2019-03-03T10:07:09.763Z,17.00
2019-03-03T10:09:48.819Z,16.97
2019-03-03T10:12:19.081Z,17.98
2019-03-03T10:14:57.977Z,16.48
2019-03-03T10:17:28.206Z,17.70
2019-03-03T10:20:07.136Z,17.17
2019-03-03T10:22:45.745Z,17.00
2019-03-03T10:25:24.896Z,16.80
2019-03-03T10:28:11.260Z,16.23
2019-03-03T10:30:44.445Z,16.77
2019-03-03T10:33:14.633Z,17.92
2019-03-03T10:35:47.873Z,17.15
2019-03-03T10:38:21.034Z,19.55
2019-03-03T10:41:03.461Z,21.50
2019-03-03T10:43:48.359Z,19.17
2019-03-03T10:46:24.566Z,18.30
2019-03-03T10:48:54.737Z,20.27
2019-03-03T10:51:24.970Z,20.12
2019-03-03T10:54:12.167Z,20.15
2019-03-03T10:56:45.030Z,20.45
2019-03-03T10:59:15.203Z,22.05
2019-03-03T11:01:48.329Z,17.98
2019-03-03T11:04:18.492Z,17.60
2019-03-03T11:06:48.761Z,18.95
2019-03-03T11:09:20.906Z,20.75
2019-03-03T11:11:59.699Z,21.68
2019-03-03T11:14:41.869Z,19.10
2019-03-03T11:17:24.171Z,17.48
2019-03-03T11:19:54.382Z,17.12
2019-03-03T11:22:27.844Z,15.90
2019-03-03T11:25:03.659Z,14.43
2019-03-03T11:27:49.255Z,14.18
2019-03-03T11:30:37.492Z,14.25
2019-03-03T11:33:07.050Z,16.15
2019-03-03T11:35:49.274Z,15.90
2019-03-03T11:38:28.362Z,15.28
2019-03-03T11:41:04.524Z,15.70
2019-03-03T11:43:50.068Z,14.33
2019-03-03T11:46:36.318Z,15.48
2019-03-03T11:49:09.329Z,14.05
2019-03-03T11:51:39.448Z,13.98
2019-03-03T11:54:24.625Z,12.95
2019-03-03T11:59:30.149Z,12.90
2019-03-03T12:02:01.007Z,16.02
2019-03-03T12:07:32.598Z,14.47
2019-03-03T12:10:06.804Z,14.28
2019-03-03T12:12:53.344Z,15.93
2019-03-03T12:15:23.711Z,15.50
2019-03-03T12:17:59.910Z,16.70
2019-03-03T12:20:35.530Z,16.60
2019-03-03T12:23:20.634Z,15.10
2019-03-03T12:28:34.968Z,15.63
2019-03-03T12:31:07.570Z,16.07
2019-03-03T12:33:41.574Z,16.25
2019-03-03T12:36:12.171Z,16.48
2019-03-03T12:38:54.371Z,15.20
2019-03-03T12:41:33.295Z,17.00
2019-03-03T12:44:03.484Z,15.08
2019-03-03T12:46:33.658Z,14.35
2019-03-03T12:49:10.159Z,13.58
2019-03-03T12:51:52.274Z,14.03
2019-03-03T12:54:38.282Z,11.48
2019-03-03T12:57:14.733Z,13.68
2019-03-03T12:59:44.852Z,11.50
2019-03-03T13:02:27.314Z,14.33
2019-03-03T13:05:00.094Z,14.63
2019-03-03T13:07:48.689Z,14.18
2019-03-03T13:10:30.894Z,12.95
2019-03-03T13:13:10.317Z,12.03
2019-03-03T13:15:49.501Z,13.70
2019-03-03T13:18:19.699Z,12.03
2019-03-03T13:20:49.809Z,14.65
2019-03-03T13:23:40.966Z,15.08
2019-03-03T13:26:22.800Z,16.97
2019-03-03T13:29:01.761Z,16.50
2019-03-03T13:31:48.031Z,19.00
2019-03-03T13:34:18.190Z,16.23
2019-03-03T13:36:54.293Z,17.20
2019-03-03T13:39:30.335Z,15.48
2019-03-03T13:42:18.353Z,14.85
2019-03-03T13:44:47.949Z,16.80
2019-03-03T13:47:16.418Z,16.60
2019-03-03T13:49:45.037Z,16.05
2019-03-03T13:52:13.781Z,14.68
2019-03-03T13:54:42.399Z,14.25
2019-03-03T13:57:11.081Z,14.73
2019-03-03T13:59:39.577Z,14.58
2019-03-03T14:02:08.402Z,13.10
2019-03-03T14:04:36.958Z,13.70
2019-03-03T14:07:06.183Z,13.62
2019-03-03T14:09:34.629Z,14.85
2019-03-03T14:12:03.249Z,16.20
2019-03-03T14:14:31.774Z,15.65
2019-03-03T14:17:00.273Z,16.23
2019-03-03T14:19:28.731Z,15.93
2019-03-03T14:21:57.418Z,13.70
2019-03-03T14:24:27.264Z,14.33
2019-03-03T14:26:55.721Z,15.28
2019-03-03T14:29:24.267Z,17.07
2019-03-03T14:31:52.802Z,16.10
2019-03-03T14:34:23.350Z,18.25
2019-03-03T14:36:51.973Z,16.60
2019-03-03T14:39:20.529Z,17.32
2019-03-03T14:41:51.408Z,16.07
2019-03-03T14:44:19.905Z,16.42
2019-03-03T14:46:48.435Z,16.97
2019-03-03T14:49:21.263Z,16.52
2019-03-03T14:51:50.311Z,18.17
2019-03-03T14:54:25.399Z,17.65
2019-03-03T14:56:53.962Z,18.98
2019-03-03T14:59:22.451Z,18.42
2019-03-03T15:01:54.867Z,16.10
2019-03-03T15:04:24.041Z,17.37
2019-03-03T15:06:52.587Z,19.55
2019-03-03T15:09:22.017Z,18.42
2019-03-03T15:11:50.645Z,16.67
2019-03-03T15:14:21.601Z,20.82
2019-03-03T15:16:51.672Z,18.52
2019-03-03T15:19:20.290Z,18.45
2019-03-03T15:21:52.769Z,19.82
2019-03-03T15:24:21.239Z,21.50
2019-03-03T15:26:49.763Z,21.15
2019-03-03T15:29:18.215Z,20.55
2019-03-03T15:31:46.798Z,20.25
2019-03-03T15:34:15.248Z,21.23
2019-03-03T15:36:44.429Z,20.05
2019-03-03T15:39:15.593Z,18.32
2019-03-03T15:41:44.069Z,19.73
2019-03-03T15:44:12.619Z,19.00
2019-03-03T15:46:41.257Z,17.75
2019-03-03T15:49:09.777Z,20.82
2019-03-03T15:51:40.828Z,20.45
2019-03-03T15:54:09.362Z,23.12
2019-03-03T15:56:37.898Z,20.88
2019-03-03T15:59:06.355Z,23.18
2019-03-03T16:01:40.664Z,26.15
2019-03-03T16:04:11.466Z,21.05
2019-03-03T16:06:39.920Z,22.35
2019-03-03T16:09:13.217Z,22.82
2019-03-03T16:11:41.686Z,24.52
2019-03-03T16:14:10.163Z,23.60
2019-03-03T16:16:45.033Z,21.17
2019-03-03T16:19:21.266Z,26.82
2019-03-03T16:21:49.898Z,24.98
2019-03-03T16:24:18.356Z,25.90
2019-03-03T16:26:47.355Z,24.47
2019-03-03T16:29:15.880Z,30.92
2019-03-03T16:31:45.908Z,31.52
2019-03-03T16:34:19.516Z,28.67
2019-03-03T16:36:49.494Z,29.50
2019-03-03T16:39:17.984Z,28.67
2019-03-03T16:41:46.672Z,29.05
2019-03-03T16:44:18.465Z,29.63
2019-03-03T16:46:46.936Z,30.15
2019-03-03T16:49:17.288Z,29.45
2019-03-03T16:51:48.266Z,29.63
2019-03-03T16:54:16.812Z,34.10
2019-03-03T16:56:45.297Z,30.05
2019-03-03T16:59:13.790Z,29.07
2019-03-03T17:01:42.375Z,28.65
2019-03-03T17:04:17.511Z,27.32
2019-03-03T17:06:46.050Z,25.32
2019-03-03T17:09:15.032Z,29.32
2019-03-03T17:11:43.594Z,26.62
2019-03-03T17:14:12.179Z,29.70
2019-03-03T17:16:40.780Z,27.62
2019-03-03T17:19:09.670Z,29.40
2019-03-03T17:21:38.140Z,30.05
2019-03-03T17:24:06.692Z,36.23
2019-03-03T17:26:36.799Z,33.38
2019-03-03T17:29:08.372Z,31.85
2019-03-03T17:31:39.978Z,34.67
2019-03-03T17:34:13.205Z,35.50
2019-03-03T17:36:38.706Z,34.03
2019-03-03T17:39:08.221Z,35.92
2019-03-03T17:41:37.249Z,37.95
2019-03-03T17:44:05.857Z,40.25
2019-03-03T17:46:34.349Z,38.45
2019-03-03T17:49:02.841Z,42.50
2019-03-03T17:51:31.416Z,35.70
2019-03-03T17:53:59.948Z,35.17
2019-03-03T17:56:30.873Z,40.10
2019-03-03T17:58:59.352Z,37.30
2019-03-03T18:01:29.593Z,36.77
2019-03-03T18:03:58.210Z,41.13
2019-03-03T18:06:26.705Z,40.48
2019-03-03T18:08:55.187Z,40.08
2019-03-03T18:11:23.768Z,43.95
2019-03-03T18:13:52.228Z,41.23
2019-03-03T18:16:20.774Z,41.45
2019-03-03T18:18:49.513Z,41.42
2019-03-03T18:21:18.015Z,41.48
2019-03-03T18:23:46.463Z,42.40
2019-03-03T18:26:18.496Z,42.55
2019-03-03T18:28:51.073Z,40.25
2019-03-03T18:31:19.625Z,44.18
2019-03-03T18:33:48.108Z,42.05
2019-03-03T18:36:16.667Z,42.27
2019-03-03T18:38:45.136Z,41.95
2019-03-03T18:41:13.672Z,47.05
2019-03-03T18:43:44.542Z,40.08
2019-03-03T18:46:13.006Z,41.58
2019-03-03T18:48:41.773Z,40.05
2019-03-03T18:51:11.581Z,40.60
2019-03-03T18:53:40.054Z,39.38
2019-03-03T18:56:08.540Z,40.35
2019-03-03T18:58:37.029Z,41.53
2019-03-03T19:01:06.396Z,39.83
2019-03-03T19:03:39.105Z,38.23
2019-03-03T19:06:09.506Z,38.00
2019-03-03T19:08:38.064Z,35.05
2019-03-03T19:11:07.871Z,35.20
2019-03-03T19:13:37.636Z,38.75
2019-03-03T19:16:06.213Z,39.53
2019-03-03T19:18:34.505Z,35.40
2019-03-03T19:21:02.977Z,35.10
2019-03-03T19:23:31.605Z,34.08
2019-03-03T19:26:00.077Z,40.58
2019-03-03T19:28:28.635Z,38.83
2019-03-03T19:30:57.288Z,38.95
2019-03-03T19:33:40.675Z,40.43
2019-03-03T19:36:09.244Z,39.53
2019-03-03T19:38:40.481Z,37.93
2019-03-03T19:41:12.055Z,36.33
2019-03-03T19:43:40.689Z,40.98
2019-03-03T19:46:10.936Z,38.83
2019-03-03T19:48:39.596Z,41.37
2019-03-03T19:51:14.781Z,43.17
2019-03-03T19:53:43.344Z,47.03
2019-03-03T19:56:13.452Z,49.53
2019-03-03T19:58:42.117Z,46.35
2019-03-03T20:01:10.841Z,45.40
2019-03-03T20:03:39.409Z,52.33
2019-03-03T20:06:07.961Z,46.20
2019-03-03T20:08:36.428Z,57.53
2019-03-03T20:11:08.157Z,48.28
2019-03-03T20:13:36.713Z,50.17
2019-03-03T20:16:05.306Z,48.48
2019-03-03T20:18:34.009Z,49.20
2019-03-03T20:21:02.631Z,53.28
2019-03-03T20:23:31.223Z,50.25
2019-03-03T20:26:00.116Z,58.60
2019-03-03T20:28:28.659Z,55.95
2019-03-03T20:30:57.478Z,55.58
2019-03-03T20:33:25.980Z,55.38
2019-03-03T20:35:54.466Z,58.42
2019-03-03T20:38:23.019Z,52.78
2019-03-03T20:40:51.483Z,54.58
2019-03-03T20:43:20.040Z,52.90
2019-03-03T20:45:53.284Z,51.37
2019-03-03T20:48:21.918Z,55.40
2019-03-03T20:50:50.799Z,52.85
2019-03-03T20:53:22.360Z,59.05
2019-03-03T20:55:50.828Z,54.05
2019-03-03T20:58:21.901Z,51.75
2019-03-03T21:00:51.703Z,55.48
2019-03-03T21:03:21.716Z,56.73
2019-03-03T21:05:50.605Z,58.70
2019-03-03T21:08:19.185Z,55.38
2019-03-03T21:10:47.972Z,54.73
2019-03-03T21:13:16.525Z,58.42
2019-03-03T21:15:45.063Z,53.80
2019-03-03T21:18:13.606Z,57.55
2019-03-03T21:20:42.298Z,52.83
2019-03-03T21:23:12.259Z,54.18
2019-03-03T21:25:43.441Z,48.05
2019-03-03T21:28:14.135Z,52.48
2019-03-03T21:30:42.615Z,56.13
2019-03-03T21:33:12.799Z,53.28
2019-03-03T21:35:41.351Z,55.43
2019-03-03T21:38:09.883Z,52.58
2019-03-03T21:40:38.441Z,45.00
2019-03-03T21:43:07.255Z,51.98
2019-03-03T21:45:37.454Z,51.60
2019-03-03T21:48:05.986Z,51.83
2019-03-03T21:51:12.416Z,56.68
2019-03-03T21:53:40.943Z,45.98
2019-03-03T21:56:09.438Z,47.35
2019-03-03T21:58:37.922Z,49.42
2019-03-03T22:01:07.854Z,46.63
2019-03-03T22:03:36.675Z,55.48
2019-03-03T22:06:05.305Z,51.33
2019-03-03T22:08:33.778Z,49.80
2019-03-03T22:11:05.499Z,45.12
2019-03-03T22:13:34.030Z,44.00
2019-03-03T22:16:02.521Z,44.35
2019-03-03T22:18:31.030Z,44.98
2019-03-03T22:20:59.579Z,40.73
2019-03-03T22:23:28.059Z,47.27
2019-03-03T22:25:56.546Z,44.42
2019-03-03T22:28:25.002Z,42.23
2019-03-03T22:30:53.698Z,39.63
2019-03-03T22:33:22.179Z,36.95
2019-03-03T22:35:50.662Z,34.50
2019-03-03T22:38:22.305Z,41.88
2019-03-03T22:40:50.783Z,33.33
2019-03-03T22:43:19.280Z,36.15
2019-03-03T22:45:47.759Z,34.60
2019-03-03T22:48:19.402Z,37.78
2019-03-03T22:50:48.272Z,32.58
2019-03-03T22:53:16.822Z,37.58
2019-03-03T22:55:45.299Z,35.88
2019-03-03T22:58:13.835Z,34.78
2019-03-03T23:01:00.644Z,42.67
2019-03-03T23:03:34.886Z,37.80
2019-03-03T23:06:06.432Z,39.20
2019-03-03T23:08:46.578Z,32.03
2019-03-03T23:11:36.312Z,33.58
2019-03-03T23:14:37.720Z,36.03
2019-03-03T23:17:24.371Z,31.95
2019-03-03T23:20:29.964Z,30.45
2019-03-03T23:23:31.725Z,31.25
2019-03-03T23:26:04.849Z,28.83
2019-03-03T23:28:33.342Z,30.48
2019-03-03T23:31:01.810Z,30.90
2019-03-03T23:33:30.315Z,28.62
2019-03-03T23:35:58.775Z,27.75
2019-03-03T23:38:27.450Z,32.03
2019-03-03T23:40:56.112Z,28.23
2019-03-03T23:43:24.602Z,33.15
2019-03-03T23:45:54.608Z,30.10
2019-03-03T23:48:23.088Z,29.85
2019-03-03T23:50:51.570Z,26.68
2019-03-03T23:53:20.077Z,28.38
2019-03-03T23:55:48.615Z,28.35
2019-03-03T23:58:17.175Z,27.45
